createdAt,value
2018-09-08T00:01:25.546Z,9.83
2018-09-08T00:03:56.252Z,11.20
2018-09-08T00:06:31.891Z,10.10
2018-09-08T00:09:03.570Z,9.40
2018-09-08T00:11:34.252Z,8.93
2018-09-08T00:14:05.163Z,9.70
2018-09-08T00:16:40.684Z,9.63
2018-09-08T00:19:16.142Z,11.40
2018-09-08T00:21:52.174Z,10.40
2018-09-08T00:24:28.907Z,9.60
2018-09-08T00:26:58.235Z,10.10
2018-09-08T00:29:33.997Z,10.17
2018-09-08T00:32:09.356Z,10.77
2018-09-08T00:34:41.525Z,10.10
2018-09-08T00:37:12.033Z,9.80
2018-09-08T00:39:43.584Z,10.00
2018-09-08T00:42:14.313Z,11.10
2018-09-08T00:44:45.201Z,10.10
2018-09-08T00:47:15.969Z,9.53
2018-09-08T00:49:46.576Z,9.37
2018-09-08T00:52:17.248Z,10.07
2018-09-08T00:54:48.473Z,11.00
2018-09-08T00:57:19.187Z,10.63
2018-09-08T00:59:49.742Z,10.80
2018-09-08T01:02:20.522Z,10.33
2018-09-08T01:04:52.612Z,10.90
2018-09-08T01:07:28.313Z,11.93
2018-09-08T01:10:00.020Z,9.60
2018-09-08T01:12:31.223Z,10.67
2018-09-08T01:15:02.808Z,11.13
2018-09-08T01:17:33.333Z,10.10
2018-09-08T01:20:03.915Z,10.30
2018-09-08T01:22:34.734Z,10.30
2018-09-08T01:25:06.473Z,8.90
2018-09-08T01:27:37.100Z,10.37
2018-09-08T01:30:08.369Z,12.10
2018-09-08T01:32:38.850Z,10.60
2018-09-08T01:35:10.215Z,10.63
2018-09-08T01:37:41.099Z,9.57
2018-09-08T01:40:11.857Z,10.23
2018-09-08T01:42:42.590Z,11.70
2018-09-08T01:45:13.854Z,10.37
2018-09-08T01:47:44.173Z,10.30
2018-09-08T01:50:14.494Z,11.70
2018-09-08T01:52:45.029Z,10.80
2018-09-08T01:55:16.584Z,9.80
2018-09-08T01:57:47.132Z,10.50
2018-09-08T02:00:17.746Z,10.30
2018-09-08T02:02:48.379Z,9.60
2018-09-08T02:05:19.606Z,10.67
2018-09-08T02:07:50.044Z,11.23
2018-09-08T02:10:21.272Z,11.10
2018-09-08T02:12:51.882Z,10.23
2018-09-08T02:15:23.320Z,10.17
2018-09-08T02:17:53.933Z,11.40
2018-09-08T02:20:24.097Z,10.83
2018-09-08T02:22:54.797Z,11.07
2018-09-08T02:25:25.556Z,10.73
2018-09-08T02:27:56.127Z,10.27
2018-09-08T02:30:26.587Z,10.73
2018-09-08T02:32:56.978Z,11.40
2018-09-08T02:35:28.490Z,11.17
2018-09-08T02:37:58.650Z,11.23
2018-09-08T02:40:29.177Z,11.10
2018-09-08T02:43:00.117Z,9.60
2018-09-08T02:45:31.031Z,10.77
2018-09-08T02:48:01.752Z,10.30
2018-09-08T02:50:33.170Z,10.97
2018-09-08T02:53:01.974Z,9.70
2018-09-08T02:55:31.327Z,10.10
2018-09-08T02:58:00.175Z,9.60
2018-09-08T03:00:29.664Z,9.60
2018-09-08T03:02:58.661Z,11.50
2018-09-08T03:05:27.532Z,10.27
2018-09-08T03:07:56.611Z,10.30
2018-09-08T03:10:25.613Z,11.03
2018-09-08T03:12:54.172Z,9.87
2018-09-08T03:15:22.718Z,10.27
2018-09-08T03:17:51.596Z,12.00
2018-09-08T03:20:20.275Z,10.07
2018-09-08T03:22:48.995Z,10.30
2018-09-08T03:25:17.860Z,10.90
2018-09-08T03:27:46.446Z,10.57
2018-09-08T03:30:15.128Z,12.03
2018-09-08T03:32:43.777Z,11.70
2018-09-08T03:35:12.181Z,12.13
2018-09-08T03:37:41.089Z,11.43
2018-09-08T03:40:09.967Z,12.90
2018-09-08T03:42:38.750Z,12.80
2018-09-08T03:45:07.520Z,11.70
2018-09-08T03:47:36.540Z,11.20
2018-09-08T03:50:05.597Z,11.20
2018-09-08T03:52:34.591Z,10.30
2018-09-08T03:55:03.482Z,12.60
2018-09-08T03:57:32.510Z,16.80
2018-09-08T04:00:01.469Z,19.60
2018-09-08T04:02:30.562Z,20.93
2018-09-08T04:05:01.174Z,16.73
2018-09-08T04:07:31.767Z,18.87
2018-09-08T04:10:02.555Z,17.50
2018-09-08T04:12:33.051Z,16.83
2018-09-08T04:15:04.335Z,16.07
2018-09-08T04:17:34.506Z,15.67
2018-09-08T04:20:04.977Z,14.30
2018-09-08T04:22:36.531Z,17.03
2018-09-08T04:25:07.880Z,18.93
2018-09-08T04:27:38.826Z,18.50
2018-09-08T04:30:09.051Z,17.37
2018-09-08T04:32:39.571Z,18.00
2018-09-08T04:35:10.344Z,14.60
2018-09-08T04:37:40.833Z,16.33
2018-09-08T04:40:11.043Z,14.90
2018-09-08T04:42:41.655Z,14.40
2018-09-08T04:45:13.172Z,15.17
2018-09-08T04:47:43.839Z,13.93
2018-09-08T04:50:13.988Z,16.30
2018-09-08T04:52:44.418Z,13.97
2018-09-08T04:55:15.858Z,16.37
2018-09-08T04:57:46.652Z,15.00
2018-09-08T05:00:17.083Z,17.70
2018-09-08T05:02:47.518Z,15.23
2018-09-08T05:05:19.110Z,17.97
2018-09-08T05:07:49.695Z,14.70
2018-09-08T05:10:20.614Z,16.70
2018-09-08T05:12:51.079Z,19.13
2018-09-08T05:15:21.987Z,18.33
2018-09-08T05:17:52.365Z,18.60
2018-09-08T05:20:22.978Z,15.77
2018-09-08T05:22:53.862Z,15.33
2018-09-08T05:25:24.202Z,16.00
2018-09-08T05:27:54.934Z,16.13
2018-09-08T05:30:25.462Z,15.07
2018-09-08T05:32:56.036Z,13.27
2018-09-08T05:35:26.730Z,14.50
2018-09-08T05:37:57.183Z,12.97
2018-09-08T05:40:27.793Z,13.60
2018-09-08T05:42:58.273Z,14.13
2018-09-08T05:45:29.076Z,14.27
2018-09-08T05:47:59.449Z,13.00
2018-09-08T05:50:29.935Z,15.63
2018-09-08T05:53:00.627Z,15.80
2018-09-08T05:55:31.997Z,15.00
2018-09-08T05:58:02.595Z,15.50
2018-09-08T06:00:33.143Z,13.33
2018-09-08T06:03:03.669Z,15.03
2018-09-08T06:05:34.331Z,15.23
2018-09-08T06:08:04.966Z,15.53
2018-09-08T06:10:35.764Z,16.30
2018-09-08T06:13:06.219Z,15.43
2018-09-08T06:15:37.051Z,15.70
2018-09-08T06:18:07.791Z,14.50
2018-09-08T06:20:38.538Z,14.20
2018-09-08T06:23:09.518Z,12.83
2018-09-08T06:25:40.780Z,12.87
2018-09-08T06:28:10.754Z,15.27
2018-09-08T06:30:41.264Z,15.37
2018-09-08T06:33:11.625Z,14.10
2018-09-08T06:35:42.085Z,15.27
2018-09-08T06:38:11.845Z,12.97
2018-09-08T06:40:41.702Z,13.63
2018-09-08T06:43:11.537Z,14.33
2018-09-08T06:45:41.462Z,14.30
2018-09-08T06:48:11.412Z,12.43
2018-09-08T06:50:41.028Z,13.23
2018-09-08T06:53:10.647Z,13.87
2018-09-08T06:55:40.458Z,13.63
2018-09-08T06:58:10.328Z,11.80
2018-09-08T07:00:40.259Z,13.97
2018-09-08T07:03:10.161Z,14.83
2018-09-08T07:05:39.871Z,14.20
2018-09-08T07:08:09.654Z,12.10
2018-09-08T07:10:39.603Z,12.03
2018-09-08T07:13:09.521Z,13.23
2018-09-08T07:15:39.338Z,13.57
2018-09-08T07:18:09.083Z,13.67
2018-09-08T07:20:38.964Z,14.90
2018-09-08T07:23:08.748Z,12.30
2018-09-08T07:25:38.513Z,14.13
2018-09-08T07:28:08.445Z,16.67
2018-09-08T07:30:38.608Z,12.93
2018-09-08T07:33:08.495Z,13.47
2018-09-08T07:35:38.274Z,14.53
2018-09-08T07:38:08.104Z,13.27
2018-09-08T07:40:37.786Z,11.47
2018-09-08T07:43:07.650Z,13.00
2018-09-08T07:45:37.577Z,12.83
2018-09-08T07:48:07.654Z,13.70
2018-09-08T07:50:37.518Z,11.90
2018-09-08T07:53:07.450Z,13.80
2018-09-08T07:55:37.138Z,13.13
2018-09-08T07:58:07.029Z,13.80
2018-09-08T08:00:36.927Z,13.13
2018-09-08T08:03:06.959Z,13.50
2018-09-08T08:05:37.023Z,13.50
2018-09-08T08:08:07.193Z,13.47
2018-09-08T08:10:37.122Z,12.50
2018-09-08T08:13:07.351Z,12.50
2018-09-08T08:15:38.174Z,13.50
2018-09-08T08:18:08.082Z,12.40
2018-09-08T08:20:38.013Z,12.20
2018-09-08T08:23:07.770Z,11.30
2018-09-08T08:25:37.583Z,11.60
2018-09-08T08:28:07.493Z,13.27
2018-09-08T08:30:37.292Z,13.17
2018-09-08T08:33:07.300Z,14.30
2018-09-08T08:35:37.118Z,14.00
2018-09-08T08:38:07.025Z,14.90
2018-09-08T08:40:36.757Z,14.20
2018-09-08T08:43:06.787Z,12.60
2018-09-08T08:45:36.749Z,13.77
2018-09-08T08:48:06.606Z,14.80
2018-09-08T08:50:46.969Z,14.40
2018-09-08T08:53:27.275Z,13.37
2018-09-08T08:55:57.548Z,13.77
2018-09-08T08:58:27.388Z,14.23
2018-09-08T09:00:57.114Z,14.33
2018-09-08T09:03:27.053Z,14.70
2018-09-08T09:05:56.836Z,15.57
2018-09-08T09:08:27.255Z,14.50
2018-09-08T09:10:56.757Z,15.07
2018-09-08T09:13:26.596Z,13.20
2018-09-08T09:15:56.380Z,14.70
2018-09-08T09:20:40.068Z,14.10
2018-09-08T09:25:19.632Z,13.47
2018-09-08T09:27:50.790Z,12.00
2018-09-08T09:30:21.198Z,11.83
2018-09-08T09:32:51.060Z,15.23
2018-09-08T09:35:22.647Z,13.57
2018-09-08T09:37:52.443Z,13.87
2018-09-08T09:40:23.007Z,12.93
2018-09-08T09:42:52.749Z,14.13
2018-09-08T09:45:24.310Z,13.53
2018-09-08T09:48:00.502Z,14.47
2018-09-08T09:50:31.055Z,14.70
2018-09-08T09:53:01.603Z,10.87
2018-09-08T09:55:32.635Z,11.90
2018-09-08T09:58:03.962Z,11.23
2018-09-08T10:00:39.551Z,12.00
2018-09-08T10:03:09.373Z,13.70
2018-09-08T10:05:39.236Z,10.73
2018-09-08T10:08:10.524Z,11.50
2018-09-08T10:10:41.242Z,10.30
2018-09-08T10:13:11.130Z,10.47
2018-09-08T10:15:41.118Z,13.47
2018-09-08T10:18:12.088Z,12.20
2018-09-08T10:20:41.878Z,12.90
2018-09-08T10:23:11.759Z,13.73
2018-09-08T10:25:41.698Z,12.13
2018-09-08T10:28:12.337Z,11.10
2018-09-08T10:30:42.269Z,10.50
2018-09-08T10:33:12.139Z,11.47
2018-09-08T10:35:42.018Z,10.07
2018-09-08T10:38:12.969Z,10.67
2018-09-08T10:40:42.822Z,9.90
2018-09-08T10:43:12.556Z,8.80
2018-09-08T10:45:42.401Z,9.40
2018-09-08T10:48:13.645Z,10.20
2018-09-08T10:50:43.465Z,10.13
2018-09-08T10:53:13.357Z,9.57
2018-09-08T10:55:43.208Z,10.00
2018-09-08T10:58:14.161Z,9.53
2018-09-08T11:00:44.034Z,12.37
2018-09-08T11:03:13.881Z,11.70
2018-09-08T11:05:43.724Z,9.67
2018-09-08T11:08:13.944Z,9.73
2018-09-08T11:10:43.799Z,9.63
2018-09-08T11:13:13.661Z,8.27
2018-09-08T11:15:43.256Z,8.87
2018-09-08T11:18:13.576Z,7.80
2018-09-08T11:20:44.095Z,8.40
2018-09-08T11:23:14.610Z,8.93
2018-09-08T11:25:45.096Z,8.60
2018-09-08T11:28:15.470Z,8.00
2018-09-08T11:30:45.303Z,7.57
2018-09-08T11:33:15.022Z,7.10
2018-09-08T11:35:44.788Z,7.53
2018-09-08T11:38:15.382Z,7.57
2018-09-08T11:40:45.228Z,7.83
2018-09-08T11:43:14.836Z,8.40
2018-09-08T11:45:45.249Z,7.70
2018-09-08T11:48:16.107Z,7.33
2018-09-08T11:50:46.658Z,7.17
2018-09-08T11:53:17.167Z,7.60
2018-09-08T11:55:47.650Z,7.70
2018-09-08T11:58:19.049Z,7.13
2018-09-08T12:00:49.584Z,7.70
2018-09-08T12:03:20.421Z,7.33
2018-09-08T12:05:51.117Z,8.10
2018-09-08T12:08:21.779Z,5.70
2018-09-08T12:10:52.628Z,6.40
2018-09-08T12:13:23.062Z,6.57
2018-09-08T12:15:53.868Z,6.27
2018-09-08T12:18:24.746Z,7.70
2018-09-08T12:20:55.755Z,6.40
2018-09-08T12:23:26.404Z,5.80
2018-09-08T12:25:56.914Z,6.77
2018-09-08T12:28:27.860Z,6.97
2018-09-08T12:30:58.515Z,6.20
2018-09-08T12:33:28.908Z,7.50
2018-09-08T12:35:59.507Z,6.67
2018-09-08T12:38:30.045Z,5.50
2018-09-08T12:41:00.851Z,6.10
2018-09-08T12:43:31.252Z,6.50
2018-09-08T12:46:01.864Z,6.37
2018-09-08T12:48:33.074Z,7.27
2018-09-08T12:51:03.465Z,7.20
2018-09-08T12:53:34.241Z,5.40
2018-09-08T12:56:04.916Z,6.50
2018-09-08T12:58:35.231Z,6.37
2018-09-08T13:01:05.035Z,7.07
2018-09-08T13:03:34.824Z,7.47
2018-09-08T13:06:04.713Z,8.03
2018-09-08T13:08:34.477Z,6.73
2018-09-08T13:11:04.262Z,6.10
2018-09-08T13:13:34.009Z,6.30
2018-09-08T13:16:03.892Z,7.27
2018-09-08T13:18:33.623Z,7.67
2018-09-08T13:21:03.488Z,7.00
2018-09-08T13:23:33.413Z,6.60
2018-09-08T13:26:03.285Z,6.60
2018-09-08T13:28:33.124Z,7.10
2018-09-08T13:31:02.934Z,7.30
2018-09-08T13:33:32.685Z,7.20
2018-09-08T13:36:02.546Z,7.37
2018-09-08T13:38:32.309Z,7.63
2018-09-08T13:41:02.083Z,6.57
2018-09-08T13:43:32.143Z,7.53
2018-09-08T13:46:01.977Z,8.30
2018-09-08T13:48:31.763Z,8.03
2018-09-08T13:51:01.827Z,7.30
2018-09-08T13:53:32.366Z,7.40
2018-09-08T13:56:02.707Z,8.13
2018-09-08T13:58:33.167Z,7.87
2018-09-08T14:01:03.680Z,8.13
2018-09-08T14:03:34.282Z,8.20
2018-09-08T14:06:04.803Z,8.10
2018-09-08T14:08:35.451Z,7.77
2018-09-08T14:11:06.001Z,7.87
2018-09-08T14:13:35.862Z,8.77
2018-09-08T14:16:05.997Z,8.00
2018-09-08T14:18:35.846Z,5.37
2018-09-08T14:21:05.713Z,7.30
2018-09-08T14:23:35.499Z,6.97
2018-09-08T14:26:05.232Z,7.23
2018-09-08T14:28:35.110Z,7.67
2018-09-08T14:31:04.879Z,5.60
2018-09-08T14:33:34.788Z,5.43
2018-09-08T14:36:04.652Z,4.67
2018-09-08T14:38:34.776Z,4.67
2018-09-08T14:41:04.623Z,4.87
2018-09-08T14:43:34.450Z,4.47
2018-09-08T14:46:04.355Z,3.77
2018-09-08T14:48:34.105Z,4.83
2018-09-08T14:51:04.468Z,4.47
2018-09-08T14:53:34.352Z,6.23
2018-09-08T14:56:05.442Z,5.47
2018-09-08T14:58:36.588Z,6.73
2018-09-08T15:01:07.265Z,5.40
2018-09-08T15:03:37.822Z,7.87
2018-09-08T15:06:08.378Z,5.10
2018-09-08T15:08:39.130Z,7.03
2018-09-08T15:11:09.536Z,7.00
2018-09-08T15:13:40.006Z,7.17
2018-09-08T15:16:10.615Z,8.87
2018-09-08T15:18:40.942Z,9.00
2018-09-08T15:21:11.373Z,8.77
2018-09-08T15:23:41.919Z,8.33
2018-09-08T15:26:12.465Z,9.20
2018-09-08T15:28:43.317Z,8.90
2018-09-08T15:31:13.886Z,9.13
2018-09-08T15:33:44.416Z,8.53
2018-09-08T15:36:15.091Z,8.93
2018-09-08T15:38:46.262Z,11.10
2018-09-08T15:41:17.429Z,9.20
2018-09-08T15:43:48.128Z,12.23
2018-09-08T15:46:18.508Z,9.80
2018-09-08T15:48:49.776Z,9.90
2018-09-08T15:51:20.574Z,10.30
2018-09-08T15:53:50.814Z,9.83
2018-09-08T15:56:21.296Z,10.03
2018-09-08T15:58:52.892Z,13.30
2018-09-08T16:01:23.618Z,11.00
2018-09-08T16:03:54.246Z,11.00
2018-09-08T16:06:24.827Z,11.30
2018-09-08T16:08:55.193Z,10.03
2018-09-08T16:11:25.887Z,9.80
2018-09-08T16:13:56.274Z,14.20
2018-09-08T16:16:26.962Z,12.53
2018-09-08T16:18:57.732Z,11.50
2018-09-08T16:21:28.247Z,11.10
2018-09-08T16:23:58.932Z,11.60
2018-09-08T16:26:29.616Z,12.07
2018-09-08T16:29:00.213Z,10.97
2018-09-08T16:31:30.777Z,9.07
2018-09-08T16:34:01.295Z,11.20
2018-09-08T16:36:31.597Z,10.80
2018-09-08T16:39:03.043Z,13.20
2018-09-08T16:41:33.351Z,10.67
2018-09-08T16:44:04.026Z,8.60
2018-09-08T16:46:34.749Z,9.43
2018-09-08T16:49:05.676Z,9.80
2018-09-08T16:51:36.885Z,9.17
2018-09-08T16:54:07.458Z,10.20
2018-09-08T16:56:38.407Z,10.70
2018-09-08T16:59:09.381Z,11.77
2018-09-08T17:01:39.964Z,13.20
2018-09-08T17:04:10.670Z,15.43
2018-09-08T17:06:41.249Z,15.50
2018-09-08T17:09:12.043Z,12.50
2018-09-08T17:11:42.426Z,15.07
2018-09-08T17:14:13.090Z,15.77
2018-09-08T17:16:43.618Z,14.67
2018-09-08T17:19:14.423Z,13.90
2018-09-08T17:21:45.625Z,15.10
2018-09-08T17:24:16.050Z,14.30
2018-09-08T17:26:46.650Z,14.10
2018-09-08T17:29:17.726Z,13.40
2018-09-08T17:31:48.366Z,12.70
2018-09-08T17:34:18.954Z,13.60
2018-09-08T17:36:49.125Z,11.30
2018-09-08T17:39:21.162Z,12.00
2018-09-08T17:41:51.796Z,10.37
2018-09-08T17:44:22.175Z,10.23
2018-09-08T17:46:52.725Z,9.83
2018-09-08T17:49:23.575Z,10.47
2018-09-08T17:51:54.162Z,9.77
2018-09-08T17:54:24.928Z,10.60
2018-09-08T17:56:55.422Z,10.43
2018-09-08T17:59:26.474Z,11.37
2018-09-08T18:01:57.554Z,9.57
2018-09-08T18:04:28.307Z,11.47
2018-09-08T18:06:58.708Z,10.80
2018-09-08T18:09:30.460Z,11.90
2018-09-08T18:12:01.114Z,10.90
2018-09-08T18:14:31.824Z,11.67
2018-09-08T18:17:02.701Z,11.10
2018-09-08T18:19:34.139Z,11.70
2018-09-08T18:22:04.745Z,12.10
2018-09-08T18:27:27.930Z,9.70
2018-09-08T18:29:58.434Z,9.53
2018-09-08T18:32:28.863Z,10.00
2018-09-08T18:34:59.723Z,8.90
2018-09-08T18:37:30.319Z,8.70
2018-09-08T18:40:00.847Z,9.77
2018-09-08T18:42:31.607Z,7.77
2018-09-08T18:45:03.340Z,9.07
2018-09-08T18:47:33.971Z,9.10
2018-09-08T18:50:04.698Z,9.13
2018-09-08T18:52:35.599Z,8.90
2018-09-08T18:55:06.369Z,8.73
2018-09-08T18:57:36.848Z,9.00
2018-09-08T19:00:06.879Z,8.77
2018-09-08T19:02:37.389Z,8.87
2018-09-08T19:05:08.293Z,7.73
2018-09-08T19:07:39.116Z,8.70
2018-09-08T19:10:09.646Z,8.20
2018-09-08T19:12:40.147Z,8.43
2018-09-08T19:15:15.758Z,7.77
2018-09-08T19:17:46.567Z,7.97
2018-09-08T19:20:21.982Z,8.77
2018-09-08T19:22:52.710Z,7.90
2018-09-08T19:25:24.124Z,9.07
2018-09-08T19:27:54.764Z,7.80
2018-09-08T19:30:24.968Z,9.10
2018-09-08T19:32:55.478Z,8.07
2018-09-08T19:35:31.662Z,7.57
2018-09-08T19:38:02.146Z,7.67
2018-09-08T19:40:37.536Z,7.90
2018-09-08T19:43:07.936Z,7.33
2018-09-08T19:45:38.566Z,7.50
2018-09-08T19:48:18.834Z,7.00
2018-09-08T19:50:49.140Z,6.47
2018-09-08T19:53:24.796Z,9.23
2018-09-08T19:55:56.086Z,8.20
2018-09-08T19:58:31.863Z,9.40
2018-09-08T20:01:02.738Z,18.70
2018-09-08T20:03:33.455Z,11.83
2018-09-08T20:06:04.002Z,7.53
2018-09-08T20:08:36.575Z,6.70
2018-09-08T20:11:06.696Z,8.93
2018-09-08T20:13:37.513Z,7.63
2018-09-08T20:16:08.538Z,7.07
2018-09-08T20:18:38.982Z,8.20
2018-09-08T20:21:09.466Z,7.60
2018-09-08T20:23:39.903Z,8.13
2018-09-08T20:26:11.464Z,8.20
2018-09-08T20:28:42.216Z,8.53
2018-09-08T20:31:12.858Z,8.53
2018-09-08T20:33:43.413Z,8.03
2018-09-08T20:36:14.725Z,8.30
2018-09-08T20:38:45.112Z,9.97
2018-09-08T20:41:15.524Z,9.90
2018-09-08T20:43:46.210Z,9.13
2018-09-08T20:46:17.473Z,8.60
2018-09-08T20:48:47.979Z,8.60
2018-09-08T20:51:18.622Z,6.73
2018-09-08T20:53:49.341Z,6.50
2018-09-08T20:56:20.445Z,7.53
2018-09-08T20:58:50.681Z,7.87
2018-09-08T21:01:21.154Z,7.17
2018-09-08T21:03:51.611Z,7.70
2018-09-08T21:06:23.235Z,8.00
2018-09-08T21:08:53.890Z,8.40
2018-09-08T21:11:24.505Z,8.73
2018-09-08T21:13:55.088Z,7.17
2018-09-08T21:16:25.985Z,10.17
2018-09-08T21:18:56.419Z,7.73
2018-09-08T21:21:26.949Z,8.97
2018-09-08T21:23:57.567Z,7.33
2018-09-08T21:26:28.562Z,9.03
2018-09-08T21:28:59.159Z,7.33
2018-09-08T21:31:29.604Z,8.87
2018-09-08T21:34:00.173Z,8.50
2018-09-08T21:36:31.078Z,8.77
2018-09-08T21:39:01.499Z,7.90
2018-09-08T21:41:32.785Z,7.60
2018-09-08T21:44:03.585Z,7.93
2018-09-08T21:46:35.126Z,8.03
2018-09-08T21:49:06.178Z,9.50
2018-09-08T21:51:36.894Z,8.00
2018-09-08T21:54:07.914Z,8.97
2018-09-08T21:56:38.397Z,7.93
2018-09-08T21:59:08.839Z,9.40
2018-09-08T22:01:39.875Z,9.23
2018-09-08T22:04:10.398Z,8.03
2018-09-08T22:06:41.689Z,8.30
2018-09-08T22:09:12.548Z,7.77
2018-09-08T22:11:43.081Z,7.13
2018-09-08T22:14:13.602Z,8.60
2018-09-08T22:16:44.799Z,7.20
2018-09-08T22:19:15.266Z,7.50
2018-09-08T22:21:45.846Z,8.37
2018-09-08T22:24:16.275Z,7.67
2018-09-08T22:26:46.721Z,7.70
2018-09-08T22:29:17.330Z,7.73
2018-09-08T22:31:48.027Z,7.70
2018-09-08T22:34:18.546Z,8.50
2018-09-08T22:36:49.646Z,7.63
2018-09-08T22:39:19.966Z,7.80
2018-09-08T22:41:50.404Z,7.60
2018-09-08T22:44:20.957Z,7.70
2018-09-08T22:46:52.831Z,7.57
2018-09-08T22:49:23.859Z,7.87
2018-09-08T22:51:54.430Z,7.83
2018-09-08T22:54:25.410Z,7.47
2018-09-08T22:56:56.803Z,8.37
2018-09-08T22:59:27.309Z,8.60
2018-09-08T23:01:58.082Z,7.07
2018-09-08T23:04:28.525Z,7.47
2018-09-08T23:06:59.499Z,7.77
2018-09-08T23:09:30.000Z,7.30
2018-09-08T23:12:00.670Z,7.83
2018-09-08T23:14:30.783Z,7.60
2018-09-08T23:17:01.202Z,8.40
2018-09-08T23:19:31.837Z,8.30
2018-09-08T23:22:02.518Z,6.90
2018-09-08T23:24:32.930Z,8.67
2018-09-08T23:27:04.059Z,7.77
2018-09-08T23:29:34.573Z,7.07
2018-09-08T23:32:04.994Z,8.80
2018-09-08T23:34:35.551Z,8.70
2018-09-08T23:37:06.552Z,8.17
